createdAt,value
2022-09-28T00:02:24.255Z,55.05
2022-09-28T00:04:51.026Z,54.79
2022-09-28T00:07:17.522Z,54.57
2022-09-28T00:09:44.160Z,54.45
2022-09-28T00:12:11.758Z,53.92
2022-09-28T00:14:40.480Z,54.25
2022-09-28T00:17:08.243Z,53.91
2022-09-28T00:19:34.905Z,53.79
2022-09-28T00:22:01.403Z,54.19
2022-09-28T00:24:28.632Z,54.32
2022-09-28T00:26:57.155Z,55.07
2022-09-28T00:29:28.253Z,53.78
2022-09-28T00:32:16.628Z,54.25
2022-09-28T00:34:48.912Z,55.62
2022-09-28T00:37:15.625Z,54.42
2022-09-28T00:39:43.397Z,54.41
2022-09-28T00:42:14.314Z,54.45
2022-09-28T00:44:46.382Z,54.76
2022-09-28T00:47:15.910Z,55.51
2022-09-28T00:49:53.795Z,53.57
2022-09-28T00:52:34.137Z,53.61
2022-09-28T00:55:05.911Z,53.85
2022-09-28T00:57:33.625Z,54.82
2022-09-28T01:00:01.858Z,54.84
2022-09-28T01:02:28.790Z,54.75
2022-09-28T01:04:57.205Z,55.27
2022-09-28T01:07:24.185Z,54.92
2022-09-28T01:09:52.309Z,55.49
2022-09-28T01:12:18.890Z,54.82
2022-09-28T01:14:45.965Z,54.57
2022-09-28T01:17:16.177Z,53.76
2022-09-28T01:19:58.965Z,54.41
2022-09-28T01:22:37.412Z,54.33
2022-09-28T01:25:12.445Z,55.24
2022-09-28T01:27:48.908Z,55.05
2022-09-28T01:30:20.078Z,55.91
2022-09-28T01:32:54.544Z,54.76
2022-09-28T01:35:31.345Z,55.38
2022-09-28T01:38:34.074Z,53.90
2022-09-28T01:41:01.827Z,54.28
2022-09-28T01:43:30.505Z,55.57
2022-09-28T01:46:18.583Z,55.22
2022-09-28T01:48:57.322Z,56.56
2022-09-28T01:51:41.143Z,56.11
2022-09-28T01:54:13.102Z,56.57
2022-09-28T01:56:52.563Z,54.58
2022-09-28T01:59:25.812Z,54.97
2022-09-28T02:01:56.563Z,56.24
2022-09-28T02:04:28.512Z,57.00
2022-09-28T02:07:05.033Z,57.41
2022-09-28T02:09:47.234Z,57.61
2022-09-28T02:12:21.131Z,57.77
2022-09-28T02:14:52.029Z,57.67
2022-09-28T02:17:20.185Z,57.61
2022-09-28T02:19:47.601Z,58.43
2022-09-28T02:22:23.318Z,58.27
2022-09-28T02:25:10.375Z,57.46
2022-09-28T02:27:51.016Z,58.39
2022-09-28T02:30:18.287Z,58.45
2022-09-28T02:32:49.063Z,58.32
2022-09-28T02:35:18.233Z,59.36
2022-09-28T02:37:45.935Z,60.09
2022-09-28T02:40:15.252Z,59.71
2022-09-28T02:43:12.144Z,59.58
2022-09-28T02:45:41.924Z,58.84
2022-09-28T02:48:42.672Z,58.63
2022-09-28T02:51:45.823Z,58.63
2022-09-28T02:54:34.844Z,58.75
2022-09-28T02:57:13.051Z,59.82
2022-09-28T03:00:12.210Z,59.63
2022-09-28T03:03:01.661Z,60.54
2022-09-28T03:06:09.295Z,58.81
2022-09-28T03:08:52.070Z,59.06
2022-09-28T03:11:28.724Z,59.88
2022-09-28T03:13:56.168Z,59.32
2022-09-28T03:16:32.155Z,59.84
2022-09-28T03:18:59.032Z,59.76
2022-09-28T03:21:25.549Z,59.97
2022-09-28T03:23:52.167Z,59.56
2022-09-28T03:26:19.785Z,60.88
2022-09-28T03:28:46.657Z,60.78
2022-09-28T03:31:19.388Z,60.83
2022-09-28T03:33:46.470Z,60.41
2022-09-28T03:36:14.956Z,62.30
2022-09-28T03:38:41.587Z,61.75
2022-09-28T03:41:08.329Z,62.52
2022-09-28T03:43:37.538Z,62.48
2022-09-28T03:46:04.965Z,61.73
2022-09-28T03:48:40.028Z,62.48
2022-09-28T03:51:10.564Z,62.31
2022-09-28T03:53:39.341Z,62.22
2022-09-28T03:56:13.378Z,62.04
2022-09-28T03:58:41.605Z,63.54
2022-09-28T04:01:16.532Z,63.78
2022-09-28T04:03:46.130Z,63.43
2022-09-28T04:06:13.762Z,63.41
2022-09-28T04:08:40.561Z,62.26
2022-09-28T04:11:07.094Z,62.00
2022-09-28T04:13:33.863Z,62.56
2022-09-28T04:16:01.456Z,62.19
2022-09-28T04:18:32.782Z,62.96
2022-09-28T04:21:22.206Z,62.39
2022-09-28T04:23:54.442Z,63.45
2022-09-28T04:26:23.758Z,62.81
2022-09-28T04:29:09.403Z,62.29
2022-09-28T04:31:46.699Z,62.60
2022-09-28T04:34:17.458Z,63.27
2022-09-28T04:36:45.294Z,63.08
2022-09-28T04:39:12.790Z,63.78
2022-09-28T04:41:40.673Z,63.00
2022-09-28T04:44:07.909Z,62.69
2022-09-28T04:46:35.287Z,62.65
2022-09-28T04:49:20.534Z,61.56
2022-09-28T04:51:55.002Z,62.72
2022-09-28T04:54:21.824Z,62.65
2022-09-28T04:56:49.021Z,63.11
2022-09-28T04:59:15.701Z,63.13
2022-09-28T05:01:43.017Z,63.56
2022-09-28T05:04:28.349Z,64.16
2022-09-28T05:07:03.512Z,63.74
2022-09-28T05:09:31.591Z,68.97
2022-09-28T05:11:59.578Z,72.29
2022-09-28T05:14:26.189Z,72.79
2022-09-28T05:16:52.876Z,73.88
2022-09-28T05:19:19.570Z,68.54
2022-09-28T05:21:46.879Z,66.54
2022-09-28T05:24:13.882Z,70.03
2022-09-28T05:26:43.351Z,70.88
2022-09-28T05:29:10.642Z,69.12
2022-09-28T05:31:40.110Z,68.56
2022-09-28T05:34:09.545Z,65.96
2022-09-28T05:36:37.275Z,65.90
2022-09-28T05:39:04.746Z,66.12
2022-09-28T05:41:31.607Z,65.97
2022-09-28T05:44:00.039Z,65.63
2022-09-28T05:46:26.609Z,66.01
2022-09-28T05:48:54.199Z,67.05
2022-09-28T05:51:21.248Z,68.63
2022-09-28T05:53:48.075Z,68.72
2022-09-28T05:56:16.230Z,66.95
2022-09-28T05:58:44.603Z,67.28
2022-09-28T06:01:11.991Z,67.95
2022-09-28T06:03:39.045Z,69.04
2022-09-28T06:06:06.645Z,69.30
2022-09-28T06:08:33.500Z,68.35
2022-09-28T06:11:17.534Z,66.96
2022-09-28T06:13:44.612Z,65.75
2022-09-28T06:16:15.803Z,65.69
2022-09-28T06:18:42.966Z,65.09
2022-09-28T06:21:28.115Z,64.68
2022-09-28T06:23:54.823Z,67.51
2022-09-28T06:26:21.474Z,68.34
2022-09-28T06:28:48.594Z,66.83
2022-09-28T06:31:16.058Z,65.92
2022-09-28T06:33:48.481Z,67.93
2022-09-28T06:36:15.996Z,68.63
2022-09-28T06:38:42.843Z,68.75
2022-09-28T06:41:11.394Z,69.10
2022-09-28T06:43:40.841Z,68.08
2022-09-28T06:46:26.180Z,68.33
2022-09-28T06:49:14.156Z,67.24
2022-09-28T06:52:12.512Z,66.47
2022-09-28T06:54:57.798Z,68.03
2022-09-28T06:57:41.118Z,69.31
2022-09-28T07:00:08.517Z,69.46
2022-09-28T07:02:35.484Z,68.39
2022-09-28T07:05:26.703Z,68.21
2022-09-28T07:08:19.614Z,69.44
2022-09-28T07:11:07.904Z,69.59
2022-09-28T07:13:51.153Z,69.18
2022-09-28T07:16:26.404Z,68.74
2022-09-28T07:18:54.089Z,68.69
2022-09-28T07:21:29.297Z,67.23
2022-09-28T07:23:59.985Z,68.53
2022-09-28T07:26:45.448Z,66.64
2022-09-28T07:29:25.946Z,64.60
2022-09-28T07:32:00.209Z,64.92
2022-09-28T07:34:26.840Z,65.39
2022-09-28T07:37:00.992Z,67.20
2022-09-28T07:39:28.041Z,65.81
2022-09-28T07:41:59.734Z,66.44
2022-09-28T07:44:29.791Z,65.13
2022-09-28T07:46:56.827Z,65.14
2022-09-28T07:49:44.186Z,65.48
2022-09-28T07:52:15.404Z,66.19
2022-09-28T07:55:07.169Z,66.81
2022-09-28T07:57:56.263Z,64.84
2022-09-28T08:00:38.250Z,65.28
2022-09-28T08:03:04.888Z,65.34
2022-09-28T08:05:35.799Z,65.20
2022-09-28T08:08:03.032Z,62.43
2022-09-28T08:10:29.719Z,61.99
2022-09-28T08:13:21.245Z,61.47
2022-09-28T08:16:02.882Z,60.85
2022-09-28T08:18:52.456Z,60.82
2022-09-28T08:21:39.830Z,61.12
2022-09-28T08:24:06.462Z,60.67
2022-09-28T08:26:33.619Z,60.13
2022-09-28T08:29:00.270Z,60.57
2022-09-28T08:31:47.833Z,60.03
2022-09-28T08:34:32.805Z,60.44
2022-09-28T08:37:06.988Z,59.53
2022-09-28T08:39:52.226Z,58.72
2022-09-28T08:42:43.406Z,57.93
2022-09-28T08:45:15.334Z,58.86
2022-09-28T08:48:30.868Z,58.07
2022-09-28T08:51:43.623Z,58.78
2022-09-28T08:54:49.502Z,57.91
2022-09-28T08:57:32.189Z,58.47
2022-09-28T09:00:01.936Z,58.65
2022-09-28T09:02:36.670Z,58.49
2022-09-28T09:05:48.704Z,58.84
2022-09-28T09:08:28.102Z,56.57
2022-09-28T09:10:58.575Z,56.06
2022-09-28T09:13:50.850Z,55.87
2022-09-28T09:16:21.653Z,56.18
2022-09-28T09:19:35.543Z,56.82
2022-09-28T09:22:23.917Z,56.61
2022-09-28T09:25:20.311Z,56.45
2022-09-28T09:28:13.673Z,58.28
2022-09-28T09:31:11.072Z,59.71
2022-09-28T09:33:54.562Z,58.27
2022-09-28T09:37:02.785Z,58.14
2022-09-28T09:40:11.492Z,59.30
2022-09-28T09:43:19.602Z,58.47
2022-09-28T09:46:19.928Z,59.79
2022-09-28T09:49:16.810Z,54.44
2022-09-28T09:52:10.120Z,58.78
2022-09-28T09:54:46.448Z,59.12
2022-09-28T09:57:30.701Z,61.19
2022-09-28T10:00:12.007Z,58.70
2022-09-28T10:02:49.754Z,58.80
2022-09-28T10:05:35.836Z,55.32
2022-09-28T10:08:16.246Z,54.00
2022-09-28T10:11:07.611Z,54.65
2022-09-28T10:13:38.281Z,50.33
2022-09-28T10:16:19.132Z,51.68
2022-09-28T10:18:54.448Z,51.89
2022-09-28T10:21:41.220Z,50.41
2022-09-28T10:24:30.296Z,52.03
2022-09-28T10:27:03.119Z,51.92
2022-09-28T10:29:40.045Z,47.51
2022-09-28T10:32:25.258Z,51.39
2022-09-28T10:35:14.895Z,49.24
2022-09-28T10:38:04.541Z,50.62
2022-09-28T10:40:59.205Z,53.35
2022-09-28T10:43:50.617Z,49.34
2022-09-28T10:46:23.471Z,49.32
2022-09-28T10:48:53.952Z,50.23
2022-09-28T10:51:42.352Z,46.68
2022-09-28T10:54:19.778Z,50.23
2022-09-28T10:56:51.449Z,48.62
2022-09-28T10:59:29.263Z,46.97
2022-09-28T11:02:19.587Z,49.15
2022-09-28T11:04:53.937Z,52.01
2022-09-28T11:07:30.550Z,51.84
2022-09-28T11:09:58.891Z,52.68
2022-09-28T11:12:29.652Z,51.05
2022-09-28T11:15:01.517Z,51.98
2022-09-28T11:17:40.452Z,52.27
2022-09-28T11:20:28.251Z,52.93
2022-09-28T11:23:20.341Z,52.14
2022-09-28T11:25:58.668Z,50.43
2022-09-28T11:28:32.634Z,50.22
2022-09-28T11:31:02.939Z,49.45
2022-09-28T11:33:41.309Z,49.44
2022-09-28T11:36:39.619Z,49.16
2022-09-28T11:39:27.619Z,47.78
2022-09-28T11:42:40.829Z,47.23
2022-09-28T11:45:43.122Z,46.28
2022-09-28T11:48:25.638Z,44.30
2022-09-28T11:50:56.592Z,43.32
2022-09-28T11:53:48.993Z,44.86
2022-09-28T11:56:49.623Z,45.43
2022-09-28T11:59:27.608Z,44.75
2022-09-28T12:02:20.667Z,44.89
2022-09-28T12:05:02.982Z,47.78
2022-09-28T12:07:47.418Z,45.70
2022-09-28T12:10:36.970Z,46.40
2022-09-28T12:13:10.599Z,45.31
2022-09-28T12:15:59.199Z,43.88
2022-09-28T12:18:29.937Z,44.83
2022-09-28T12:21:24.240Z,44.32
2022-09-28T12:23:55.899Z,43.79
2022-09-28T12:27:04.364Z,46.66
2022-09-28T12:29:37.841Z,46.30
2022-09-28T12:32:07.504Z,45.62
2022-09-28T12:34:34.039Z,49.58
2022-09-28T12:37:37.470Z,48.63
2022-09-28T12:40:36.786Z,48.80
2022-09-28T12:43:14.893Z,47.43
2022-09-28T12:46:09.744Z,48.37
2022-09-28T12:49:33.186Z,48.08
2022-09-28T12:51:52.258Z,48.41
2022-09-28T12:54:54.303Z,50.92
2022-09-28T12:57:42.468Z,46.12
2022-09-28T13:00:13.726Z,47.29
2022-09-28T13:02:40.336Z,46.49
2022-09-28T13:05:22.751Z,49.89
2022-09-28T13:07:58.267Z,50.34
2022-09-28T13:10:35.176Z,49.12
2022-09-28T13:13:32.549Z,48.57
2022-09-28T13:16:21.512Z,48.97
2022-09-28T13:18:48.097Z,48.52
2022-09-28T13:21:20.373Z,50.64
2022-09-28T13:23:50.328Z,49.95
2022-09-28T13:26:23.673Z,51.16
2022-09-28T13:28:54.759Z,50.82
2022-09-28T13:31:31.866Z,49.17
2022-09-28T13:34:03.602Z,50.54
2022-09-28T13:36:30.524Z,48.57
2022-09-28T13:38:59.481Z,50.49
2022-09-28T13:41:35.425Z,50.43
2022-09-28T13:44:10.962Z,51.42
2022-09-28T13:46:58.618Z,49.20
2022-09-28T13:50:13.108Z,47.54
2022-09-28T13:53:02.094Z,47.60
2022-09-28T13:55:34.321Z,49.87
2022-09-28T13:58:05.575Z,48.40
2022-09-28T14:00:47.402Z,50.16
2022-09-28T14:04:08.175Z,49.47
2022-09-28T14:06:34.891Z,48.63
2022-09-28T14:09:13.326Z,48.87
2022-09-28T14:11:55.439Z,47.59
2022-09-28T14:14:47.147Z,48.62
2022-09-28T14:17:19.729Z,47.43
2022-09-28T14:19:52.639Z,47.18
2022-09-28T14:22:44.956Z,47.11
2022-09-28T14:25:33.232Z,48.23
2022-09-28T14:28:27.621Z,49.75
2022-09-28T14:30:59.621Z,48.36
2022-09-28T14:33:30.606Z,47.55
2022-09-28T14:36:02.050Z,47.15
2022-09-28T14:39:05.788Z,47.35
2022-09-28T14:41:41.820Z,48.58
2022-09-28T14:44:16.416Z,47.39
2022-09-28T14:46:47.770Z,51.17
2022-09-28T14:49:17.566Z,51.25
2022-09-28T14:51:44.083Z,49.68
2022-09-28T14:54:10.596Z,53.03
2022-09-28T14:56:56.962Z,53.55
2022-09-28T14:59:36.174Z,53.09
2022-09-28T15:02:12.413Z,55.37
2022-09-28T15:04:46.789Z,55.12
2022-09-28T15:07:53.045Z,54.34
2022-09-28T15:10:27.794Z,55.54
2022-09-28T15:12:57.059Z,54.84
2022-09-28T15:15:38.928Z,54.90
2022-09-28T15:18:42.499Z,56.53
2022-09-28T15:21:11.091Z,56.26
2022-09-28T15:23:40.177Z,56.13
2022-09-28T15:26:19.781Z,53.95
2022-09-28T15:28:46.719Z,55.58
2022-09-28T15:31:19.088Z,55.64
2022-09-28T15:34:04.868Z,54.44
2022-09-28T15:36:36.262Z,57.07
2022-09-28T15:39:15.743Z,56.72
2022-09-28T15:41:44.182Z,56.38
2022-09-28T15:44:10.626Z,57.54
2022-09-28T15:46:40.652Z,56.89
2022-09-28T15:49:23.312Z,58.69
2022-09-28T15:51:53.405Z,56.85
2022-09-28T15:54:27.219Z,59.29
2022-09-28T15:56:55.090Z,59.88
2022-09-28T15:59:39.388Z,59.63
2022-09-28T16:02:16.735Z,61.32
2022-09-28T16:04:50.497Z,60.44
2022-09-28T16:07:39.477Z,58.44
2022-09-28T16:10:31.211Z,59.61
2022-09-28T16:13:08.332Z,59.26
2022-09-28T16:15:37.262Z,57.94
2022-09-28T16:18:12.713Z,57.71
2022-09-28T16:20:40.415Z,60.51
2022-09-28T16:23:20.068Z,59.15
2022-09-28T16:25:53.961Z,58.60
2022-09-28T16:28:34.974Z,59.42
2022-09-28T16:31:07.041Z,60.09
2022-09-28T16:33:46.795Z,59.41
2022-09-28T16:36:15.749Z,59.49
2022-09-28T16:38:46.225Z,59.48
2022-09-28T16:41:14.715Z,59.58
2022-09-28T16:43:41.289Z,59.96
2022-09-28T16:46:14.456Z,61.07
2022-09-28T16:48:48.481Z,62.20
2022-09-28T16:51:19.312Z,62.06
2022-09-28T16:54:04.513Z,62.62
2022-09-28T16:56:33.277Z,62.60
2022-09-28T16:58:59.817Z,62.91
2022-09-28T17:01:27.129Z,63.66
2022-09-28T17:03:54.062Z,63.55
2022-09-28T17:06:25.219Z,63.19
2022-09-28T17:08:55.165Z,64.15
2022-09-28T17:11:24.658Z,63.89
2022-09-28T17:13:52.058Z,65.30
2022-09-28T17:16:32.205Z,66.20
2022-09-28T17:19:18.998Z,65.83
2022-09-28T17:21:46.528Z,65.78
2022-09-28T17:24:13.208Z,66.04
2022-09-28T17:26:43.722Z,66.12
2022-09-28T17:29:14.461Z,66.50
2022-09-28T17:31:43.066Z,67.00
2022-09-28T17:34:11.078Z,65.92
2022-09-28T17:36:38.633Z,66.41
2022-09-28T17:39:06.667Z,66.53
2022-09-28T17:41:34.248Z,67.35
2022-09-28T17:44:03.031Z,67.70
2022-09-28T17:46:36.173Z,68.02
2022-09-28T17:49:05.379Z,68.10
2022-09-28T17:51:34.886Z,67.85
2022-09-28T17:54:01.870Z,68.04
2022-09-28T17:56:32.251Z,68.12
2022-09-28T17:59:07.754Z,67.43
2022-09-28T18:01:38.129Z,67.70
2022-09-28T18:04:08.027Z,67.70
2022-09-28T18:06:35.101Z,67.42
2022-09-28T18:09:06.399Z,67.15
2022-09-28T18:11:33.755Z,66.58
2022-09-28T18:14:04.978Z,68.07
2022-09-28T18:16:34.946Z,67.61
2022-09-28T18:19:01.544Z,67.91
2022-09-28T18:21:32.565Z,67.98
2022-09-28T18:23:59.211Z,68.77
2022-09-28T18:26:25.743Z,68.94
2022-09-28T18:28:54.988Z,69.27
2022-09-28T18:31:21.774Z,68.93
2022-09-28T18:33:48.615Z,68.48
2022-09-28T18:36:15.587Z,68.73
2022-09-28T18:38:42.227Z,67.68
2022-09-28T18:41:17.228Z,67.63
2022-09-28T18:43:49.311Z,67.78
2022-09-28T18:46:18.224Z,67.96
2022-09-28T18:48:45.380Z,68.02
2022-09-28T18:51:12.524Z,67.14
2022-09-28T18:53:40.229Z,66.43
2022-09-28T18:56:09.472Z,66.21
2022-09-28T18:58:37.181Z,66.19
2022-09-28T19:04:00.941Z,67.14
2022-09-28T19:06:28.219Z,67.08
2022-09-28T19:08:55.828Z,67.27
2022-09-28T19:11:23.518Z,67.45
2022-09-28T19:13:50.386Z,67.74
2022-09-28T19:16:22.647Z,67.67
2022-09-28T19:18:51.284Z,68.84
2022-09-28T19:21:18.022Z,68.65
2022-09-28T19:23:49.243Z,68.55
2022-09-28T19:26:20.886Z,68.27
2022-09-28T19:28:47.900Z,68.76
2022-09-28T19:31:14.449Z,69.61
2022-09-28T19:33:41.817Z,70.08
2022-09-28T19:36:11.295Z,69.99
2022-09-28T19:38:39.258Z,70.31
2022-09-28T19:41:10.275Z,70.37
2022-09-28T19:43:36.921Z,69.26
2022-09-28T19:46:05.742Z,69.00
2022-09-28T19:48:33.850Z,69.43
2022-09-28T19:51:03.522Z,69.38
2022-09-28T19:53:34.130Z,69.29
2022-09-28T19:56:05.095Z,69.69
2022-09-28T19:58:35.485Z,69.22
2022-09-28T20:01:08.318Z,69.53
2022-09-28T20:03:35.384Z,69.97
2022-09-28T20:06:02.757Z,70.09
2022-09-28T20:08:32.511Z,70.39
2022-09-28T20:11:00.277Z,70.38
2022-09-28T20:13:35.353Z,70.46
2022-09-28T20:16:07.545Z,70.07
2022-09-28T20:18:35.792Z,70.02
2022-09-28T20:21:07.675Z,69.82
2022-09-28T20:23:37.274Z,70.41
2022-09-28T20:26:05.414Z,70.04
2022-09-28T20:28:32.728Z,70.89
2022-09-28T20:31:03.698Z,70.88
2022-09-28T20:33:32.649Z,71.03
2022-09-28T20:36:10.636Z,71.07
2022-09-28T20:38:40.308Z,71.22
2022-09-28T20:41:12.537Z,71.23
2022-09-28T20:43:40.308Z,71.04
2022-09-28T20:46:10.194Z,70.96
2022-09-28T20:48:37.036Z,70.74
2022-09-28T20:51:12.063Z,70.59
2022-09-28T20:53:40.775Z,71.11
2022-09-28T20:56:25.430Z,70.81
2022-09-28T20:58:53.088Z,70.74
2022-09-28T21:01:28.595Z,70.98
2022-09-28T21:03:56.365Z,70.70
2022-09-28T21:06:33.539Z,70.92
2022-09-28T21:09:00.178Z,70.30
2022-09-28T21:11:28.153Z,70.60
2022-09-28T21:14:00.410Z,71.03
2022-09-28T21:16:29.229Z,71.46
2022-09-28T21:18:55.995Z,71.94
2022-09-28T21:21:23.689Z,71.93
2022-09-28T21:23:54.959Z,71.88
2022-09-28T21:26:26.974Z,71.75
2022-09-28T21:28:54.360Z,71.40
2022-09-28T21:31:26.212Z,71.30
2022-09-28T21:33:55.552Z,71.05
2022-09-28T21:36:22.062Z,70.81
2022-09-28T21:38:49.298Z,71.48
2022-09-28T21:41:16.033Z,71.55
2022-09-28T21:43:42.642Z,72.04
2022-09-28T21:46:10.383Z,71.83
2022-09-28T21:48:37.155Z,72.25
2022-09-28T21:51:06.586Z,72.03
2022-09-28T21:53:35.516Z,72.42
2022-09-28T21:56:04.290Z,73.04
2022-09-28T21:58:33.529Z,72.51
2022-09-28T22:01:14.804Z,72.83
2022-09-28T22:03:43.884Z,72.97
2022-09-28T22:06:11.223Z,72.92
2022-09-28T22:08:38.575Z,72.69
2022-09-28T22:11:08.258Z,72.59
2022-09-28T22:13:40.077Z,71.86
2022-09-28T22:16:07.505Z,72.79
2022-09-28T22:18:34.688Z,72.83
2022-09-28T22:21:08.877Z,73.12
2022-09-28T22:23:36.903Z,72.85
2022-09-28T22:26:07.104Z,72.55
2022-09-28T22:28:34.317Z,72.62
2022-09-28T22:31:01.169Z,72.41
2022-09-28T22:33:28.055Z,71.68
2022-09-28T22:35:55.164Z,71.58
2022-09-28T22:38:23.642Z,71.64
2022-09-28T22:40:52.427Z,71.39
2022-09-28T22:43:19.155Z,71.68
2022-09-28T22:45:45.763Z,71.96
2022-09-28T22:48:13.118Z,71.68
2022-09-28T22:50:39.642Z,71.27
2022-09-28T22:53:06.542Z,72.06
2022-09-28T22:55:33.927Z,72.15
2022-09-28T22:58:01.860Z,72.02
2022-09-28T23:00:28.406Z,72.63
2022-09-28T23:02:54.992Z,72.76
2022-09-28T23:05:21.536Z,72.33
2022-09-28T23:07:48.114Z,72.68
2022-09-28T23:10:14.719Z,72.70
2022-09-28T23:12:41.323Z,72.44
2022-09-28T23:15:08.561Z,72.72
2022-09-28T23:17:35.184Z,72.69
2022-09-28T23:20:02.062Z,72.62
2022-09-28T23:22:28.581Z,72.67
2022-09-28T23:24:55.253Z,72.41
2022-09-28T23:27:21.820Z,72.50
2022-09-28T23:29:48.947Z,72.81
2022-09-28T23:32:19.296Z,74.63
2022-09-28T23:34:45.966Z,74.06
2022-09-28T23:37:12.437Z,74.10
2022-09-28T23:39:38.999Z,74.02
2022-09-28T23:42:05.701Z,73.57
2022-09-28T23:44:33.134Z,73.97
2022-09-28T23:46:59.705Z,73.93
2022-09-28T23:49:26.522Z,73.86
2022-09-28T23:51:53.023Z,73.65
2022-09-28T23:54:19.584Z,73.67
2022-09-28T23:56:46.129Z,72.99
2022-09-28T23:59:12.704Z,73.07
